Data for 05/30/2007

Time Sea-Level Adjusted Pressure Absolute Pressure Temperature Relative Humidity Dew Point   
(mb) (inHg) (mb) (inHg) (C) (F) (%) (C) (F)
00:05 1024 30.24 853 25.19 6.1 43 87 4.1 39.4
00:10 1024 30.24 853 25.19 6 42.9 88 4.1 39.4
00:15 1024 30.24 853 25.19 6 42.8 87 4 39.2
00:20 1024 30.24 853 25.19 6 42.7 87 4 39.2
00:25 1024 30.24 854 25.22 6 42.7 87 4 39.1
00:30 1024 30.24 853 25.19 6 42.8 86 3.9 38.9
00:35 1024 30.24 853 25.19 6 42.9 85 3.7 38.7
00:40 1024 30.24 853 25.19 6.2 43.1 85 3.9 38.9
00:45 1024 30.24 853 25.19 6.1 43.1 86 3.9 39.1
00:50 1024 30.24 853 25.19 6.1 42.9 87 4.1 39.4
00:55 1024 30.24 853 25.19 5.9 42.6 88 4 39.2
01:00 1024 30.24 853 25.19 5.8 42.5 88 4 39.1
01:05 1024 30.24 853 25.19 5.7 42.3 88 3.9 39.1
01:10 1024 30.24 853 25.19 5.7 42.2 88 3.9 39
01:15 1024 30.24 853 25.19 5.6 42.1 88 3.8 38.9
01:20 1024 30.24 853 25.19 5.5 42 88 3.7 38.7
01:25 1024 30.24 853 25.19 5.6 42 88 3.7 38.7
01:30 1024 30.24 853 25.19 5.5 41.8 88 3.6 38.6
01:35 1024 30.24 853 25.19 5.3 41.6 89 3.7 38.6
01:40 1024 30.24 853 25.19 5.3 41.6 89 3.6 38.5
01:45 1024 30.24 853 25.19 5.3 41.6 88 3.5 38.3
01:50 1024 30.24 853 25.19 5.4 41.7 87 3.5 38.2
01:55 1024 30.24 853 25.19 5.5 41.8 86 3.3 38
02:00 1024 30.24 853 25.19 5.6 42.1 85 3.4 38.1
02:05 1024 30.24 853 25.19 5.8 42.4 85 3.4 38.1
02:10 1024 30.24 853 25.19 5.7 42.3 86 3.6 38.5
02:15 1024 30.24 853 25.19 5.8 42.4 84 3.3 37.9
02:20 1024 30.24 853 25.19 5.8 42.4 84 3.3 38
02:25 1024 30.24 853 25.19 5.6 42 86 3.4 38.2
02:30 1024 30.24 853 25.19 5.2 41.4 88 3.4 38.1
02:35 1024 30.24 853 25.19 5.1 41.2 88 3.4 38
02:40 1024 30.24 853 25.19 5 40.9 89 3.2 37.8
02:45 1024 30.24 853 25.19 4.8 40.7 88 3 37.4
02:50 1023 30.21 853 25.19 4.8 40.6 88 3 37.4
02:55 1023 30.21 853 25.19 4.6 40.3 88 2.9 37.2
03:00 1023 30.21 853 25.19 4.5 40.2 89 2.8 37.1
03:05 1023 30.21 853 25.19 4.4 40 89 2.8 37
03:10 1023 30.21 853 25.19 4.5 40.1 88 2.8 37
03:15 1023 30.21 853 25.19 4.2 39.6 90 2.7 36.9
03:20 1023 30.21 853 25.19 4 39.3 91 2.7 36.8
03:25 1023 30.21 853 25.19 4 39.1 90 2.5 36.6
03:30 1023 30.21 853 25.19 4.1 39.3 89 2.4 36.4
03:35 1023 30.21 853 25.19 4.3 39.8 87 2.4 36.4
03:40 1023 30.21 853 25.19 4.4 39.9 87 2.4 36.3
03:45 1023 30.21 853 25.19 4.3 39.8 87 2.3 36.2
03:50 1023 30.21 853 25.19 4.3 39.7 87 2.4 36.3
03:55 1023 30.21 853 25.19 3.9 39.1 89 2.3 36.2
04:00 1023 30.21 853 25.19 4.2 39.6 86 2.1 35.8
04:05 1023 30.21 853 25.19 3.9 39.1 88 2 35.7
04:10 1023 30.21 853 25.19 3.6 38.4 89 1.9 35.5
04:15 1023 30.21 852 25.16 3.6 38.5 88 1.8 35.3
04:20 1023 30.21 853 25.19 3.6 38.4 88 1.8 35.3
04:25 1023 30.21 853 25.19 3.4 38 90 1.8 35.3
04:30 1023 30.21 852 25.16 3.3 37.9 90 1.8 35.2
04:35 1023 30.21 852 25.16 3.2 37.7 90 1.7 35.1
04:40 1023 30.21 852 25.16 3.2 37.8 90 1.8 35.2
04:45 1023 30.21 852 25.16 3.2 37.7 90 1.8 35.2
04:50 1023 30.21 852 25.16 3.2 37.8 90 1.8 35.2
04:55 1023 30.21 852 25.16 3.1 37.7 91 1.8 35.2
05:00 1023 30.21 852 25.16 3.2 37.8 90 1.7 35
05:05 1023 30.21 852 25.16 3.2 37.8 89 1.6 34.9
05:10 1023 30.21 852 25.16 3.3 37.9 88 1.5 34.8
05:15 1023 30.21 852 25.16 3.5 38.3 87 1.6 34.9
05:20 1023 30.21 852 25.16 3.4 38.2 88 1.6 34.8
05:25 1023 30.21 852 25.16 3.4 38.2 87 1.5 34.8
05:30 1023 30.21 852 25.16 3.5 38.2 87 1.5 34.7
05:35 1023 30.21 852 25.16 3.2 37.7 88 1.4 34.6
05:40 1023 30.21 852 25.16 3.2 37.7 88 1.4 34.6
05:45 1023 30.21 852 25.16 3.2 37.8 88 1.5 34.6
05:50 1023 30.21 852 25.16 3.1 37.5 89 1.4 34.5
05:55 1023 30.21 852 25.16 2.7 36.9 90 1.2 34.2
06:00 1023 30.21 852 25.16 2.7 36.9 89 1.1 34.1
06:05 1023 30.21 852 25.16 2.7 36.9 90 1.3 34.3
06:10 1023 30.21 852 25.16 2.7 36.8 91 1.4 34.5
06:15 1023 30.21 852 25.16 2.9 37.3 89 1.2 34.2
06:20 1023 30.21 852 25.16 3 37.4 88 1.2 34.2
06:25 1023 30.21 852 25.16 3 37.3 89 1.3 34.3
06:30 1023 30.21 853 25.19 3.3 37.9 87 1.3 34.4
06:35 1023 30.21 853 25.19 4.1 39.3 84 1.5 34.8
06:40 1023 30.21 853 25.19 4.5 40 82 1.7 35
06:45 1023 30.21 853 25.19 4.9 40.9 81 2 35.6
06:50 1023 30.21 853 25.19 5.2 41.4 81 2.2 36
06:55 1023 30.21 852 25.16 5.1 41.1 82 2.2 36
07:00 1023 30.21 853 25.19 4.9 40.7 83 2.3 36.1
07:05 1023 30.21 853 25.19 4.7 40.4 85 2.3 36.1
07:10 1023 30.21 853 25.19 4.6 40.3 86 2.5 36.4
07:15 1023 30.21 853 25.19 4.6 40.4 86 2.5 36.4
07:20 1023 30.21 853 25.19 4.6 40.3 84 2.2 36
07:25 1023 30.21 853 25.19 4.7 40.5 85 2.4 36.4
07:30 1023 30.21 853 25.19 4.9 40.8 85 2.5 36.5
07:35 1023 30.21 853 25.19 5.2 41.4 83 2.5 36.5
07:40 1023 30.21 853 25.19 5.6 42.1 82 2.8 37
07:45 1023 30.21 853 25.19 5.9 42.5 82 2.9 37.3
07:50 1023 30.21 853 25.19 6 42.7 81 3 37.4
07:55 1023 30.21 853 25.19 6.2 43.1 80 3.1 37.5
08:00 1023 30.21 853 25.19 6.4 43.5 79 3 37.3
08:05 1023 30.21 852 25.16 6.7 44 78 3.2 37.7
08:10 1023 30.21 853 25.19 7 44.7 77 3.2 37.8
08:15 1023 30.21 853 25.19 7.5 45.5 75 3.3 37.9
08:20 1023 30.21 853 25.19 8.2 46.7 73 3.6 38.5
08:25 1023 30.21 853 25.19 8.5 47.2 72 3.7 38.7
08:30 1023 30.21 853 25.19 8.6 47.4 72 3.8 38.8
08:35 1023 30.21 853 25.19 8.7 47.7 71 3.9 38.9
08:40 1023 30.21 853 25.19 9.2 48.6 68 3.7 38.6
08:45 1023 30.21 853 25.19 9.7 49.4 68 4.2 39.5
08:50 1023 30.21 853 25.19 9.9 49.8 69 4.5 40.1
08:55 1023 30.21 853 25.19 9.9 49.8 67 4.2 39.6
09:00 1023 30.21 853 25.19 10 50 67 4.2 39.5
09:05 1023 30.21 853 25.19 10.5 50.8 64 4 39.1
09:10 1023 30.21 853 25.19 11.2 52.1 61 3.9 39.1
09:15 1023 30.21 853 25.19 11.7 53.1 60 4.2 39.5
09:20 1023 30.21 853 25.19 11.8 53.3 59 4.1 39.3
09:25 1023 30.21 853 25.19 11.7 53 62 4.7 40.5
09:30 1023 30.21 853 25.19 11.4 52.5 63 4.6 40.3
09:35 1023 30.21 853 25.19 11.3 52.3 61 4.1 39.3
09:40 1023 30.21 853 25.19 11.9 53.4 59 4.3 39.7
09:45 1023 30.21 853 25.19 12.7 54.9 56 4.2 39.6
09:50 1023 30.21 853 25.19 12.8 55.1 56 4.3 39.7
09:55 1023 30.21 853 25.19 12.6 54.7 55 3.7 38.7
10:00 1023 30.21 853 25.19 12.4 54.3 56 3.9 39
10:05 1023 30.21 853 25.19 12.7 54.9 53 3.5 38.2
10:10 1023 30.21 853 25.19 13.2 55.8 50 3.2 37.8
10:15 1023 30.21 852 25.16 13.7 56.6 50 3.5 38.3
10:20 1023 30.21 852 25.16 13.3 56 52 3.7 38.7
10:25 1023 30.21 852 25.16 12.6 54.7 53 3.3 37.9
10:30 1023 30.21 852 25.16 12.9 55.2 51 3.1 37.5
10:35 1023 30.21 852 25.16 13.7 56.7 52 4.1 39.3
10:40 1023 30.21 852 25.16 13.8 56.8 50 3.6 38.5
10:45 1023 30.21 852 25.16 13.7 56.6 51 3.9 38.9
10:50 1023 30.21 852 25.16 13.8 56.9 49 3.4 38.1
10:55 1023 30.21 852 25.16 14.4 57.9 48 3.7 38.7
11:00 1023 30.21 852 25.16 14.5 58 48 3.6 38.6
11:05 1023 30.21 852 25.16 15 59 47 3.9 39.1
11:10 1023 30.21 852 25.16 15.3 59.6 47 4 39.3
11:15 1023 30.21 852 25.16 15.7 60.2 45 3.8 38.8
11:20 1023 30.21 852 25.16 15.4 59.7 47 4.2 39.6
11:25 1023 30.21 852 25.16 15.7 60.2 46 4.2 39.5
11:30 1023 30.21 852 25.16 15.8 60.4 46 4.3 39.7
11:35 1023 30.21 852 25.16 15.2 59.3 46 3.9 38.9
11:40 1023 30.21 852 25.16 15.7 60.3 46 4.2 39.6
11:45 1023 30.21 852 25.16 16.2 61.2 44 3.9 39
11:50 1023 30.21 852 25.16 16.9 62.4 41 3.7 38.6
11:55 1023 30.21 852 25.16 16.2 61.1 43 3.8 38.9
12:00 1023 30.21 852 25.16 15.9 60.5 44 3.6 38.6
12:05 1023 30.21 852 25.16 15.6 60.1 46 4 39.1
12:10 1023 30.21 852 25.16 15.6 60.1 41 2.4 36.3
12:15 1023 30.21 852 25.16 15.8 60.4 43 3.5 38.3
12:20 1023 30.21 852 25.16 15.1 59.2 48 4.2 39.6
12:25 1023 30.21 852 25.16 15.2 59.3 43 2.6 36.8
12:30 1023 30.21 852 25.16 15.6 60.1 41 2.4 36.3
12:35 1023 30.21 852 25.16 16.2 61.2 41 3 37.3
12:40 1023 30.21 852 25.16 17 62.5 35 1.4 34.6
12:45 1023 30.21 852 25.16 16.8 62.3 40 3.2 37.8
12:50 1023 30.21 852 25.16 16.6 61.9 35 1.4 34.5
12:55 1022 30.18 852 25.16 16.3 61.4 38 2.1 35.7
13:00 1022 30.18 852 25.16 16.5 61.6 35 1 33.8
13:05 1022 30.18 852 25.16 17.1 62.8 34 1.2 34.2
13:10 1022 30.18 852 25.16 16.9 62.5 37 2.3 36.2
13:15 1022 30.18 852 25.16 15.9 60.6 37 1.3 34.3
13:20 1022 30.18 852 25.16 16.7 62 36 1.6 34.8
13:25 1022 30.18 852 25.16 17 62.6 29 -1.1 29.9
13:30 1022 30.18 851 25.13 17.5 63.4 29 -0.6 30.9
13:35 1022 30.18 851 25.13 17.1 62.7 30 -0.4 31.2
13:40 1022 30.18 851 25.13 17.3 63.2 30 -0.4 31.2
13:45 1022 30.18 851 25.13 17.4 63.3 32 0.5 33
13:50 1022 30.18 851 25.13 17.5 63.5 33 1 33.8
13:55 1022 30.18 851 25.13 18.1 64.6 33 1.8 35.3
14:00 1022 30.18 851 25.13 18.2 64.8 32 1.3 34.3
14:05 1022 30.18 851 25.13 18.2 64.8 32 1.3 34.3
14:10 1022 30.18 851 25.13 18.5 65.3 32 1.8 35.2
14:15 1022 30.18 851 25.13 18 64.4 32 1.1 34
14:20 1022 30.18 851 25.13 17.8 64 32 1.1 33.9
14:25 1022 30.18 851 25.13 18.1 64.5 32 1.3 34.4
14:30 1022 30.18 851 25.13 17.2 62.9 33 0.7 33.3
14:35 1022 30.18 851 25.13 17.6 63.7 32 0.9 33.5
14:40 1022 30.18 851 25.13 18.2 64.7 32 1.5 34.7
14:45 1022 30.18 851 25.13 18.1 64.5 32 1.4 34.5
14:50 1022 30.18 851 25.13 17.8 64.1 34 2.1 35.7
14:55 1022 30.18 851 25.13 17.9 64.3 32 1.2 34.1
15:00 1022 30.18 851 25.13 18.1 64.6 32 1.4 34.5
15:05 1022 30.18 851 25.13 18.2 64.7 33 1.8 35.2
15:10 1022 30.18 851 25.13 18.2 64.7 32 1.3 34.3
15:15 1021 30.15 851 25.13 18.3 65 33 1.8 35.2
15:20 1021 30.15 851 25.13 18 64.4 32 1.1 34
15:25 1021 30.15 851 25.13 19.1 66.3 30 1.4 34.5
15:30 1021 30.15 851 25.13 19.2 66.5 31 1.8 35.2
15:35 1021 30.15 851 25.13 19 66.1 31 1.7 35.1
15:40 1021 30.15 851 25.13 18.7 65.6 30 0.9 33.5
15:45 1021 30.15 850 25.1 18.9 65.9 32 2.1 35.8
15:50 1021 30.15 850 25.1 18.9 66 32 2.2 35.9
15:55 1021 30.15 850 25.1 18.5 65.4 31 1.3 34.3
16:00 1021 30.15 850 25.1 18.8 65.9 31 1.5 34.7
16:05 1021 30.15 850 25.1 19.2 66.5 32 2.1 35.8
16:10 1021 30.15 850 25.1 19.2 66.6 31 1.7 35.1
16:15 1021 30.15 850 25.1 19.3 66.7 30 1.4 34.6
16:20 1021 30.15 850 25.1 19.4 66.9 31 1.8 35.2
16:25 1021 30.15 850 25.1 18.8 65.9 32 2 35.6
16:30 1021 30.15 850 25.1 19 66.1 30 1.1 34
16:35 1021 30.15 850 25.1 19.3 66.7 31 1.7 35
16:40 1021 30.15 850 25.1 19.5 67.1 31 1.9 35.4
16:45 1021 30.15 850 25.1 19.7 67.4 30 1.9 35.4
16:50 1021 30.15 850 25.1 19.9 67.8 30 1.8 35.2
16:55 1021 30.15 850 25.1 18.7 65.7 32 2 35.5
17:00 1021 30.15 850 25.1 18 64.4 33 1.4 34.6
17:05 1021 30.15 850 25.1 18.7 65.7 33 2.2 36
17:10 1021 30.15 850 25.1 19.1 66.4 31 1.9 35.5
17:15 1021 30.15 850 25.1 19.6 67.2 31 2 35.5
17:20 1021 30.15 850 25.1 18.8 65.9 32 1.8 35.2
17:25 1021 30.15 850 25.1 19 66.1 30 1.3 34.3
17:30 1021 30.15 850 25.1 19.1 66.4 31 1.6 34.8
17:35 1020 30.12 850 25.1 19.1 66.5 30 1.3 34.4
17:40 1021 30.15 850 25.1 18.2 64.8 33 1.7 35.1
17:45 1021 30.15 850 25.1 18.4 65.2 31 1.2 34.1
17:50 1020 30.12 850 25.1 18.7 65.6 31 1.2 34.2
17:55 1020 30.12 850 25.1 18.8 65.9 31 1.4 34.6
18:00 1020 30.12 850 25.1 19.2 66.5 29 1 33.9
18:05 1020 30.12 850 25.1 19.5 67.1 30 1.5 34.7
18:10 1020 30.12 849 25.07 19.7 67.4 30 1.7 35
18:15 1020 30.12 849 25.07 18.8 65.8 30 1.1 33.9
18:20 1020 30.12 849 25.07 19 66.2 31 1.4 34.6
18:25 1020 30.12 849 25.07 18.8 65.9 30 1.2 34.1
18:30 1020 30.12 849 25.07 19.3 66.8 29 0.8 33.5
18:35 1020 30.12 849 25.07 19.1 66.3 29 0.8 33.4
18:40 1020 30.12 849 25.07 17.9 64.2 31 0.4 32.8
18:45 1020 30.12 849 25.07 17.8 64 33 1.2 34.2
18:50 1020 30.12 849 25.07 17.7 63.9 32 1.1 34
18:55 1020 30.12 849 25.07 17.6 63.6 33 1.3 34.3
19:00 1020 30.12 849 25.07 17.6 63.7 33 1.4 34.5
19:05 1020 30.12 849 25.07 17.7 63.8 33 1.4 34.5
19:10 1020 30.12 849 25.07 17.6 63.7 33 1.4 34.5
19:15 1020 30.12 849 25.07 17.3 63.1 34 1.4 34.5
19:20 1020 30.12 849 25.07 16.8 62.3 34 0.9 33.6
19:25 1020 30.12 850 25.1 15.3 59.6 47 4 39.3
19:30 1021 30.15 850 25.1 12.6 54.8 63 5.9 42.5
19:35 1021 30.15 850 25.1 11.6 52.9 59 3.9 39
19:40 1020 30.12 850 25.1 11.7 53.1 67 5.8 42.4
19:45 1020 30.12 850 25.1 11.6 52.9 67 5.8 42.4
19:50 1020 30.12 850 25.1 11.7 53 69 6.3 43.3
19:55 1020 30.12 850 25.1 11.7 53 72 6.7 44.1
20:00 1020 30.12 850 25.1 11.6 52.9 69 6.2 43.2
20:05 1021 30.15 850 25.1 11.5 52.8 67 5.7 42.2
20:10 1021 30.15 850 25.1 11.5 52.7 67 5.5 42
20:15 1020 30.12 850 25.1 11.3 52.4 67 5.5 41.9
20:20 1020 30.12 850 25.1 11.2 52.1 68 5.5 41.8
20:25 1020 30.12 850 25.1 11.2 52.1 72 6.4 43.5
20:30 1020 30.12 850 25.1 11.1 52 72 6.3 43.4
20:35 1021 30.15 850 25.1 10.9 51.7 71 5.9 42.6
20:40 1020 30.12 850 25.1 11 51.9 68 5.3 41.6
20:45 1020 30.12 850 25.1 11.1 52 69 5.6 42.1
20:50 1020 30.12 850 25.1 11.1 51.9 70 5.9 42.6
20:55 1020 30.12 850 25.1 11.3 52.3 73 6.6 43.9
21:00 1020 30.12 850 25.1 11.2 52.1 74 6.6 44
21:05 1021 30.15 850 25.1 10.7 51.2 76 6.6 43.8
21:10 1020 30.12 850 25.1 10.4 50.8 76 6.5 43.6
21:15 1020 30.12 850 25.1 10.3 50.5 76 6.2 43.1
21:20 1020 30.12 850 25.1 10.3 50.5 72 5.5 42
21:25 1021 30.15 850 25.1 10.4 50.7 72 5.5 41.9
21:30 1021 30.15 850 25.1 10.3 50.5 72 5.4 41.8
21:35 1021 30.15 850 25.1 10.2 50.3 73 5.5 41.9
21:40 1021 30.15 850 25.1 10.1 50.2 72 5.4 41.7
21:45 1021 30.15 850 25.1 10.2 50.4 71 5.2 41.4
21:50 1021 30.15 850 25.1 10.2 50.3 72 5.5 41.8
21:55 1021 30.15 850 25.1 10 50 74 5.7 42.3
22:00 1021 30.15 850 25.1 10 49.9 72 5.3 41.5
22:05 1021 30.15 850 25.1 10 49.9 73 5.4 41.8
22:10 1021 30.15 850 25.1 9.8 49.7 74 5.5 41.9
22:15 1021 30.15 850 25.1 9.7 49.5 74 5.3 41.5
22:20 1021 30.15 850 25.1 9.6 49.3 74 5.1 41.2
22:25 1021 30.15 850 25.1 9.6 49.3 74 5.2 41.3
22:30 1021 30.15 850 25.1 9.6 49.2 74 5.3 41.5
22:35 1021 30.15 850 25.1 9.7 49.4 69 4.4 39.9
22:40 1021 30.15 850 25.1 10 49.9 70 4.8 40.6
22:45 1021 30.15 850 25.1 9.9 49.8 72 5.1 41.1
22:50 1021 30.15 850 25.1 9.8 49.6 72 5 41
22:55 1021 30.15 850 25.1 9.8 49.6 71 4.8 40.6
23:00 1021 30.15 850 25.1 9.8 49.6 71 4.8 40.7
23:05 1021 30.15 850 25.1 9.7 49.4 69 4.4 39.9
23:10 1020 30.12 850 25.1 9.8 49.6 70 4.7 40.4
23:15 1020 30.12 850 25.1 9.4 49 74 5 41
23:20 1020 30.12 850 25.1 9.3 48.7 72 4.5 40.1
23:25 1020 30.12 849 25.07 9.3 48.7 71 4.2 39.6
23:30 1020 30.12 849 25.07 9.5 49.1 71 4.4 40
23:35 1020 30.12 849 25.07 9.4 48.9 71 4.4 40
23:40 1020 30.12 849 25.07 9.2 48.5 71 4.3 39.7
23:45 1020 30.12 849 25.07 9.1 48.4 72 4.3 39.7
23:50 1020 30.12 849 25.07 9 48.2 72 4.3 39.7
23:55 1020 30.12 849 25.07 8.7 47.7 73 4.2 39.6
24:00 1020 30.12 849 25.07 8.3 46.9 76 4.3 39.7